Metar Aviation Weather Data ENHD Haugesund

16°C Temp
12°C Dewpoint
77% Humidity
Temperature
10 KM/H
6 MPH
5 KTS
150°
South South
East

Wind Speed
Mostly Scattered
Clouds
Pressure 1009 (hPa) - 29.79 (in)
Visibility 6.2 (mi) - 10 (km)

Current Conditions
ENHD
Haugesund
Metar :ENHD 142020Z 15005KT 9999 SCT021 BKN026 16/12 Q1009
Tue 14th August 22:20 pm

Haugesund
  Metar Aviation API Data Provided by https://www.checkwx.com/ PHP scripts by weather34.com ©2018